Time;durP1;ratioP1;P1;durP2;ratioP2;P2;SDS_P1;SDS_P2;PMS_P1;PMS_P2;Temp;Humidity;BMP_temperature;BMP_pressure;BME280_temperature;BME280_humidity;BME280_pressure;Samples;Min_cycle;Max_cycle;Signal;HPM_P1;HPM_P2
2022/01/20 00:00:04;;;;;;;1.90;0.83;;;;;;;;;;6291093;28;20283;-78
2022/01/20 00:03:17;;;;;;;0.70;0.70;;;;;;;;;;6290690;28;20194;-78
2022/01/20 00:20:41;;;;;;;0.90;0.90;;;;;;;;;;6279854;28;20513;-78
2022/01/20 00:25:49;;;;;;;0.90;0.90;;;;;;;;;;6290296;28;20414;-78
2022/01/20 00:27:09;;;;;;;0.77;0.77;;;;;;;;;;6290925;28;20233;-79
2022/01/20 00:30:32;;;;;;;1.03;1.03;;;;;;;;;;6291452;28;20238;-78
2022/01/20 00:33:42;;;;;;;3.30;0.90;;;;;;;;;;6290457;28;20202;-78
2022/01/20 00:40:12;;;;;;;3.20;1.10;;;;;;;;;;6298650;28;20234;-79
2022/01/20 00:43:17;;;;;;;0.60;0.60;;;;;;;;;;6298628;28;20202;-79
2022/01/20 00:46:21;;;;;;;0.90;0.90;;;;;;;;;;6316449;28;20464;-78
2022/01/20 00:49:25;;;;;;;0.70;0.70;;;;;;;;;;6319859;28;20278;-78
2022/01/20 00:52:30;;;;;;;0.87;0.87;;;;;;;;;;6322175;28;20183;-78
2022/01/20 00:55:36;;;;;;;1.00;1.00;;;;;;;;;;6321231;28;20235;-78
2022/01/20 00:58:40;;;;;;;4.30;1.10;;;;;;;;;;6303848;28;20225;-78
2022/01/20 01:01:44;;;;;;;0.90;0.90;;;;;;;;;;6303335;28;20337;-79
2022/01/20 01:04:48;;;;;;;1.00;1.00;;;;;;;;;;6297545;28;20250;-78
2022/01/20 01:07:55;;;;;;;0.80;0.80;;;;;;;;;;6314726;28;20265;-77
2022/01/20 01:11:00;;;;;;;0.87;0.87;;;;;;;;;;6313259;28;20239;-77
2022/01/20 01:14:05;;;;;;;0.90;0.90;;;;;;;;;;6313697;28;20247;-77
2022/01/20 01:20:44;;;;;;;0.93;0.93;;;;;;;;;;6294402;28;20357;-77
2022/01/20 01:23:48;;;;;;;0.90;0.90;;;;;;;;;;6312851;28;20215;-76
2022/01/20 01:26:53;;;;;;;0.80;0.80;;;;;;;;;;6312046;28;20250;-77
2022/01/20 01:30:09;;;;;;;0.80;0.80;;;;;;;;;;6311714;28;20254;-77
2022/01/20 01:33:18;;;;;;;0.90;0.90;;;;;;;;;;6312156;28;20237;-77
2022/01/20 01:36:23;;;;;;;0.90;0.90;;;;;;;;;;6284961;28;20236;-77
2022/01/20 01:39:28;;;;;;;1.50;0.90;;;;;;;;;;6286056;28;20205;-77
2022/01/20 01:42:40;;;;;;;0.80;0.80;;;;;;;;;;6285914;28;20472;-77
2022/01/20 01:45:44;;;;;;;1.80;1.00;;;;;;;;;;6282820;28;63631;-77
2022/01/20 01:48:52;;;;;;;0.90;0.90;;;;;;;;;;6286291;28;20513;-76
2022/01/20 01:51:59;;;;;;;0.80;0.80;;;;;;;;;;6285615;28;20281;-77
2022/01/20 01:55:05;;;;;;;0.90;0.90;;;;;;;;;;6285201;28;20232;-77
2022/01/20 01:58:14;;;;;;;0.90;0.90;;;;;;;;;;6286624;28;20186;-77
2022/01/20 02:01:36;;;;;;;0.80;0.80;;;;;;;;;;6285550;28;20236;-77
2022/01/20 02:04:41;;;;;;;0.90;0.90;;;;;;;;;;6301877;28;20201;-77
2022/01/20 02:08:29;;;;;;;0.80;0.80;;;;;;;;;;6277956;28;20200;-77
2022/01/20 02:18:36;;;;;;;0.87;0.87;;;;;;;;;;6190740;28;20516;-76
2022/01/20 02:22:02;;;;;;;2.23;1.20;;;;;;;;;;6244003;28;20237;-76
2022/01/20 02:25:21;;;;;;;1.03;1.03;;;;;;;;;;6243844;28;20307;-77
2022/01/20 02:28:27;;;;;;;0.90;0.90;;;;;;;;;;6243901;28;20201;-77
2022/01/20 02:31:31;;;;;;;0.90;0.90;;;;;;;;;;6243987;28;20411;-76
2022/01/20 02:34:35;;;;;;;0.90;0.90;;;;;;;;;;6243972;28;20204;-77
2022/01/20 02:37:47;;;;;;;1.00;1.00;;;;;;;;;;6243636;28;20229;-76
2022/01/20 02:47:35;;;;;;;0.80;0.80;;;;;;;;;;6246857;28;20534;-76
2022/01/20 02:50:40;;;;;;;0.90;0.90;;;;;;;;;;6251592;28;20250;-76
2022/01/20 02:53:45;;;;;;;1.00;1.00;;;;;;;;;;6252603;28;20298;-76
2022/01/20 02:56:49;;;;;;;0.90;0.90;;;;;;;;;;6251841;28;20234;-76
2022/01/20 02:59:54;;;;;;;5.00;1.20;;;;;;;;;;6251494;28;20267;-76
2022/01/20 03:02:58;;;;;;;1.03;0.90;;;;;;;;;;6251912;28;20436;-76
2022/01/20 03:06:03;;;;;;;1.30;1.17;;;;;;;;;;6251778;28;20243;-76
2022/01/20 03:09:09;;;;;;;3.33;0.80;;;;;;;;;;6251122;28;20208;-77
2022/01/20 03:12:13;;;;;;;1.37;0.83;;;;;;;;;;6289722;28;20243;-76
2022/01/20 03:15:18;;;;;;;1.00;1.00;;;;;;;;;;6293852;28;20245;-76
2022/01/20 03:18:23;;;;;;;0.83;0.83;;;;;;;;;;6293842;28;20221;-76
2022/01/20 03:21:27;;;;;;;0.90;0.90;;;;;;;;;;6294000;28;20261;-76
2022/01/20 03:24:32;;;;;;;0.90;0.90;;;;;;;;;;6292828;28;20202;-77
2022/01/20 03:27:38;;;;;;;1.00;1.00;;;;;;;;;;6293414;28;20313;-76
2022/01/20 03:30:42;;;;;;;0.70;0.70;;;;;;;;;;6292036;28;20483;-77
2022/01/20 03:33:46;;;;;;;1.10;1.00;;;;;;;;;;6293410;28;20280;-76
2022/01/20 03:36:52;;;;;;;1.00;1.00;;;;;;;;;;6291897;28;20237;-76
2022/01/20 03:40:04;;;;;;;1.00;1.00;;;;;;;;;;6292704;28;20230;-76
2022/01/20 03:43:11;;;;;;;0.90;0.90;;;;;;;;;;6293005;28;20211;-76
2022/01/20 03:46:17;;;;;;;1.10;1.10;;;;;;;;;;6291960;28;20234;-76
2022/01/20 03:49:30;;;;;;;0.90;0.90;;;;;;;;;;6293411;28;20245;-76
2022/01/20 03:52:34;;;;;;;4.87;1.00;;;;;;;;;;6292762;28;20211;-76
2022/01/20 03:55:40;;;;;;;0.80;0.80;;;;;;;;;;6292122;28;20250;-76
2022/01/20 03:58:48;;;;;;;1.33;1.10;;;;;;;;;;6291271;28;20244;-76
2022/01/20 04:01:53;;;;;;;1.00;1.00;;;;;;;;;;6288472;28;20238;-76
2022/01/20 04:05:20;;;;;;;1.50;1.10;;;;;;;;;;6289380;28;20629;-76
2022/01/20 04:08:45;;;;;;;1.10;0.87;;;;;;;;;;6288514;28;20225;-76
2022/01/20 04:11:51;;;;;;;1.00;1.00;;;;;;;;;;6265383;28;20428;-76
2022/01/20 04:14:55;;;;;;;1.13;1.03;;;;;;;;;;6246466;28;20431;-76
2022/01/20 04:18:02;;;;;;;0.90;0.90;;;;;;;;;;6263384;28;20295;-76
2022/01/20 04:21:06;;;;;;;0.70;0.70;;;;;;;;;;6246615;28;20313;-76
2022/01/20 04:24:14;;;;;;;1.00;1.00;;;;;;;;;;6263586;28;20223;-76
2022/01/20 04:27:19;;;;;;;1.80;0.90;;;;;;;;;;6246009;28;20230;-76
2022/01/20 04:30:24;;;;;;;0.90;0.90;;;;;;;;;;6263732;28;20235;-76
2022/01/20 04:33:28;;;;;;;0.80;0.80;;;;;;;;;;6264929;28;20473;-76
2022/01/20 04:36:36;;;;;;;0.80;0.80;;;;;;;;;;6264337;28;20246;-76
2022/01/20 04:39:46;;;;;;;1.00;1.00;;;;;;;;;;6246153;28;20558;-76
2022/01/20 04:42:52;;;;;;;1.73;1.00;;;;;;;;;;6262968;28;20228;-76
2022/01/20 04:46:03;;;;;;;2.60;1.10;;;;;;;;;;6263981;28;20302;-76
2022/01/20 04:57:01;;;;;;;1.30;1.27;;;;;;;;;;6262693;28;20246;-76
2022/01/20 04:59:20;;;;;;;1.17;1.10;;;;;;;;;;6263113;28;20277;-76
2022/01/20 05:02:27;;;;;;;1.27;1.27;;;;;;;;;;6245216;28;20306;-76
2022/01/20 05:05:36;;;;;;;1.30;1.30;;;;;;;;;;6230696;28;20593;-76
2022/01/20 05:09:01;;;;;;;2.37;1.30;;;;;;;;;;6263430;28;20280;-76
2022/01/20 05:12:12;;;;;;;1.17;1.00;;;;;;;;;;6245220;28;20293;-76
2022/01/20 05:15:19;;;;;;;1.50;0.93;;;;;;;;;;6245078;28;20418;-76
2022/01/20 05:18:24;;;;;;;1.00;1.00;;;;;;;;;;6245556;28;20203;-77
2022/01/20 05:21:30;;;;;;;3.70;1.10;;;;;;;;;;6261428;28;20280;-77
2022/01/20 05:24:36;;;;;;;0.93;0.93;;;;;;;;;;6244691;28;20222;-77
2022/01/20 05:27:42;;;;;;;1.00;1.00;;;;;;;;;;6238251;28;20210;-77
2022/01/20 05:30:48;;;;;;;1.30;1.20;;;;;;;;;;6263128;28;20231;-77
2022/01/20 05:34:01;;;;;;;1.20;1.03;;;;;;;;;;6245935;28;20213;-77
2022/01/20 05:37:07;;;;;;;0.97;0.93;;;;;;;;;;6224948;28;20247;-77
2022/01/20 05:40:12;;;;;;;0.93;0.93;;;;;;;;;;6220168;28;20237;-77
2022/01/20 05:43:17;;;;;;;1.60;1.00;;;;;;;;;;6220353;28;20281;-77
2022/01/20 05:46:34;;;;;;;1.13;0.90;;;;;;;;;;6220046;28;20235;-77
2022/01/20 05:49:42;;;;;;;1.10;1.10;;;;;;;;;;6219980;28;20235;-77
2022/01/20 05:52:49;;;;;;;1.60;1.30;;;;;;;;;;6220356;28;20208;-77
2022/01/20 05:55:54;;;;;;;0.90;0.90;;;;;;;;;;6236041;28;20262;-77
2022/01/20 05:58:59;;;;;;;1.10;1.10;;;;;;;;;;6220883;28;20235;-77
2022/01/20 06:02:12;;;;;;;1.10;1.00;;;;;;;;;;6219780;28;20302;-77
2022/01/20 06:05:17;;;;;;;1.90;1.20;;;;;;;;;;6220151;28;20238;-78
2022/01/20 06:08:22;;;;;;;1.03;1.03;;;;;;;;;;6220816;28;20371;-78
2022/01/20 06:11:26;;;;;;;1.07;0.90;;;;;;;;;;6258152;28;20230;-78
2022/01/20 06:14:30;;;;;;;1.50;1.10;;;;;;;;;;6268939;28;20204;-77
2022/01/20 06:17:38;;;;;;;1.20;1.20;;;;;;;;;;6287046;28;20491;-77
2022/01/20 06:20:46;;;;;;;1.20;1.20;;;;;;;;;;6269207;28;20241;-76
2022/01/20 06:23:52;;;;;;;2.63;0.97;;;;;;;;;;6268467;28;20262;-76
2022/01/20 06:26:57;;;;;;;1.10;1.10;;;;;;;;;;6268354;28;20238;-76
2022/01/20 06:30:02;;;;;;;1.20;1.20;;;;;;;;;;6268682;28;20252;-79
2022/01/20 06:33:09;;;;;;;0.97;0.97;;;;;;;;;;6286143;28;20232;-76
2022/01/20 06:36:18;;;;;;;1.20;1.20;;;;;;;;;;6277146;28;20253;-77
2022/01/20 06:39:24;;;;;;;1.03;1.03;;;;;;;;;;6294285;28;20202;-77
2022/01/20 06:42:29;;;;;;;0.90;0.90;;;;;;;;;;6292907;28;20236;-77
2022/01/20 06:45:34;;;;;;;1.00;1.00;;;;;;;;;;6294221;28;20524;-77
2022/01/20 06:48:47;;;;;;;1.10;1.10;;;;;;;;;;6294183;28;20201;-77
2022/01/20 06:52:07;;;;;;;1.00;1.00;;;;;;;;;;6292812;28;20232;-77
2022/01/20 06:55:13;;;;;;;1.03;1.03;;;;;;;;;;6293802;28;20543;-77
2022/01/20 06:58:21;;;;;;;2.73;1.10;;;;;;;;;;6294952;28;20201;-78
2022/01/20 07:01:25;;;;;;;1.47;1.40;;;;;;;;;;6310027;28;20599;-78
2022/01/20 07:04:32;;;;;;;1.23;1.13;;;;;;;;;;6293201;28;20225;-78
2022/01/20 07:07:38;;;;;;;1.10;1.10;;;;;;;;;;6293251;28;20204;-77
2022/01/20 07:10:56;;;;;;;1.00;1.00;;;;;;;;;;6293851;28;20238;-78
2022/01/20 07:14:00;;;;;;;1.30;1.30;;;;;;;;;;6286841;28;20190;-77
2022/01/20 07:17:04;;;;;;;2.20;1.27;;;;;;;;;;6285861;28;20229;-78
2022/01/20 07:20:15;;;;;;;0.90;0.90;;;;;;;;;;6268207;28;20280;-77
2022/01/20 07:23:51;;;;;;;1.80;1.30;;;;;;;;;;6274541;28;20230;-76
2022/01/20 07:26:55;;;;;;;1.03;0.90;;;;;;;;;;6267618;28;20296;-76
2022/01/20 07:30:04;;;;;;;1.00;1.00;;;;;;;;;;6267238;28;20245;-77
2022/01/20 07:33:11;;;;;;;1.10;1.10;;;;;;;;;;6250044;28;78603;-77
2022/01/20 07:36:19;;;;;;;1.13;1.13;;;;;;;;;;6247326;28;20301;-77
2022/01/20 07:39:24;;;;;;;1.00;1.00;;;;;;;;;;6247207;28;20202;-78
2022/01/20 07:42:28;;;;;;;1.07;1.07;;;;;;;;;;6247910;28;20209;-77
2022/01/20 07:45:40;;;;;;;0.97;0.97;;;;;;;;;;6247577;28;20237;-77
2022/01/20 07:48:59;;;;;;;0.97;0.93;;;;;;;;;;6265952;28;20188;-76
2022/01/20 07:52:12;;;;;;;0.80;0.80;;;;;;;;;;6264730;28;20286;-77
2022/01/20 07:55:17;;;;;;;1.80;1.00;;;;;;;;;;6246905;28;20297;-77
2022/01/20 07:58:22;;;;;;;1.50;1.00;;;;;;;;;;6265406;28;20194;-77
2022/01/20 08:01:26;;;;;;;2.20;1.43;;;;;;;;;;6247506;28;20291;-77
2022/01/20 08:04:40;;;;;;;0.90;0.90;;;;;;;;;;6247282;28;20232;-77
2022/01/20 08:07:48;;;;;;;1.03;1.03;;;;;;;;;;6247051;28;20203;-77
2022/01/20 08:10:53;;;;;;;1.33;1.33;;;;;;;;;;6253020;28;20526;-77
2022/01/20 08:13:57;;;;;;;1.20;1.20;;;;;;;;;;6247674;28;20252;-77
2022/01/20 08:17:01;;;;;;;0.90;0.90;;;;;;;;;;6264865;28;20301;-77
2022/01/20 08:20:12;;;;;;;1.27;0.80;;;;;;;;;;6246742;28;20250;-77
2022/01/20 08:23:20;;;;;;;1.70;1.67;;;;;;;;;;6247480;28;20207;-77
2022/01/20 08:26:24;;;;;;;0.90;0.90;;;;;;;;;;6254821;28;20276;-78
2022/01/20 08:29:29;;;;;;;1.40;1.40;;;;;;;;;;6263039;28;20282;-77
2022/01/20 08:32:34;;;;;;;1.10;1.10;;;;;;;;;;6262826;28;20486;-77
2022/01/20 08:35:57;;;;;;;0.90;0.90;;;;;;;;;;6264039;28;20248;-77
2022/01/20 08:42:43;;;;;;;1.00;1.00;;;;;;;;;;6263467;28;20289;-77
2022/01/20 08:45:47;;;;;;;1.23;1.23;;;;;;;;;;6261755;28;20239;-77
2022/01/20 08:48:54;;;;;;;0.97;0.97;;;;;;;;;;6262221;28;20289;-77
2022/01/20 08:52:05;;;;;;;1.03;1.03;;;;;;;;;;6261948;28;20234;-77
2022/01/20 08:55:19;;;;;;;1.07;1.07;;;;;;;;;;6261625;28;20464;-77
2022/01/20 08:58:29;;;;;;;1.20;1.20;;;;;;;;;;6264307;28;20188;-77
2022/01/20 09:01:33;;;;;;;0.90;0.90;;;;;;;;;;6263399;28;20230;-77
2022/01/20 09:04:38;;;;;;;1.00;1.00;;;;;;;;;;6261512;28;20226;-77
2022/01/20 09:08:14;;;;;;;1.30;1.30;;;;;;;;;;6249542;28;20277;-77
2022/01/20 09:11:34;;;;;;;0.90;0.90;;;;;;;;;;6261488;28;20238;-77
2022/01/20 09:18:05;;;;;;;1.00;1.00;;;;;;;;;;6262723;28;20250;-77
2022/01/20 09:21:11;;;;;;;1.20;1.20;;;;;;;;;;6261797;28;20230;-77
2022/01/20 09:24:16;;;;;;;3.83;1.20;;;;;;;;;;6262105;28;20202;-77
2022/01/20 09:27:22;;;;;;;3.47;1.13;;;;;;;;;;6261645;28;20231;-77
2022/01/20 09:30:28;;;;;;;1.20;1.20;;;;;;;;;;6261258;28;20231;-77
2022/01/20 09:33:32;;;;;;;1.40;1.30;;;;;;;;;;6262019;28;20202;-77
2022/01/20 09:36:37;;;;;;;1.00;1.00;;;;;;;;;;6242392;28;20281;-77
2022/01/20 09:39:42;;;;;;;9.23;1.37;;;;;;;;;;6238326;28;20271;-77
2022/01/20 09:42:55;;;;;;;1.10;1.10;;;;;;;;;;6244594;28;20209;-77
2022/01/20 09:46:00;;;;;;;1.03;1.03;;;;;;;;;;6245007;28;20243;-77
2022/01/20 09:49:11;;;;;;;1.20;1.17;;;;;;;;;;6246181;28;20188;-79
2022/01/20 09:52:17;;;;;;;1.17;1.17;;;;;;;;;;6244837;28;20231;-77
2022/01/20 09:55:26;;;;;;;1.27;1.27;;;;;;;;;;6245233;28;20238;-77
2022/01/20 09:58:33;;;;;;;2.40;1.20;;;;;;;;;;6245345;28;20275;-77
2022/01/20 10:01:39;;;;;;;1.17;1.17;;;;;;;;;;6245029;28;20303;-77
2022/01/20 10:04:48;;;;;;;2.80;1.10;;;;;;;;;;6244646;28;20296;-77
2022/01/20 10:08:02;;;;;;;1.00;1.00;;;;;;;;;;6245550;28;20554;-77
2022/01/20 10:11:11;;;;;;;1.33;1.20;;;;;;;;;;6237081;28;20235;-77
2022/01/20 10:14:44;;;;;;;4.47;1.37;;;;;;;;;;6220465;28;20204;-78
2022/01/20 10:18:12;;;;;;;1.80;1.60;;;;;;;;;;6238714;28;20189;-78
2022/01/20 10:21:28;;;;;;;2.93;1.20;;;;;;;;;;6235188;28;20238;-78
2022/01/20 10:24:59;;;;;;;1.30;1.27;;;;;;;;;;6238751;28;20227;-78
2022/01/20 10:28:22;;;;;;;2.57;1.40;;;;;;;;;;6237314;28;20210;-78
2022/01/20 10:31:39;;;;;;;1.80;1.30;;;;;;;;;;6239239;28;20232;-78
2022/01/20 10:34:44;;;;;;;1.90;1.23;;;;;;;;;;6241533;28;20237;-78
2022/01/20 10:37:59;;;;;;;1.47;1.37;;;;;;;;;;6226134;28;20236;-77
2022/01/20 10:41:12;;;;;;;3.73;1.30;;;;;;;;;;6225879;28;20240;-77
2022/01/20 10:44:17;;;;;;;3.43;1.37;;;;;;;;;;6225304;28;20211;-78
2022/01/20 10:47:38;;;;;;;2.07;1.53;;;;;;;;;;6220879;28;20297;-77
2022/01/20 10:50:45;;;;;;;2.00;1.20;;;;;;;;;;6237257;28;20319;-77
2022/01/20 10:53:59;;;;;;;3.17;1.37;;;;;;;;;;6219967;28;20203;-77
2022/01/20 10:57:05;;;;;;;3.30;1.50;;;;;;;;;;6218915;28;20240;-77
2022/01/20 11:00:15;;;;;;;2.67;1.10;;;;;;;;;;6219829;28;20307;-77
2022/01/20 11:03:27;;;;;;;1.13;1.13;;;;;;;;;;6237751;28;20188;-77
2022/01/20 11:06:36;;;;;;;1.47;1.37;;;;;;;;;;6218638;28;20246;-78
2022/01/20 11:10:06;;;;;;;1.10;1.10;;;;;;;;;;6234530;28;20230;-77
2022/01/20 11:13:22;;;;;;;3.13;1.30;;;;;;;;;;6291691;28;20222;-77
2022/01/20 11:16:37;;;;;;;1.53;1.43;;;;;;;;;;6272217;28;20263;-77
2022/01/20 11:19:45;;;;;;;1.10;1.10;;;;;;;;;;6272424;28;20203;-78
2022/01/20 11:22:54;;;;;;;1.57;1.00;;;;;;;;;;6273396;28;20461;-77
2022/01/20 11:26:04;;;;;;;1.17;1.10;;;;;;;;;;6273005;28;20348;-78
2022/01/20 11:29:41;;;;;;;1.50;1.40;;;;;;;;;;6289660;28;20203;-77
2022/01/20 11:33:07;;;;;;;2.00;1.20;;;;;;;;;;6289951;28;20203;-77
2022/01/20 11:36:24;;;;;;;1.13;1.13;;;;;;;;;;6300172;28;20237;-77
2022/01/20 11:39:48;;;;;;;1.20;1.20;;;;;;;;;;6316333;28;20233;-77
2022/01/20 11:42:57;;;;;;;1.80;1.17;;;;;;;;;;6314824;28;20221;-77
2022/01/20 11:46:11;;;;;;;1.00;1.00;;;;;;;;;;6314406;28;20333;-77
2022/01/20 11:49:18;;;;;;;1.20;1.20;;;;;;;;;;6316127;28;20194;-77
2022/01/20 11:52:27;;;;;;;1.10;1.10;;;;;;;;;;6314967;28;20230;-77
2022/01/20 11:55:54;;;;;;;1.30;1.20;;;;;;;;;;6314054;28;20441;-77
2022/01/20 11:58:58;;;;;;;1.10;1.10;;;;;;;;;;6315714;28;20186;-77
2022/01/20 12:02:02;;;;;;;1.10;1.10;;;;;;;;;;6314068;28;20257;-77
2022/01/20 12:05:18;;;;;;;0.97;0.97;;;;;;;;;;6296364;28;20240;-77
2022/01/20 12:08:32;;;;;;;0.90;0.90;;;;;;;;;;6297238;28;20229;-75
2022/01/20 12:11:38;;;;;;;1.13;1.13;;;;;;;;;;6293495;28;20262;-76
2022/01/20 12:14:42;;;;;;;1.23;1.13;;;;;;;;;;6288817;28;20210;-77
2022/01/20 12:17:50;;;;;;;1.00;1.00;;;;;;;;;;6289879;28;20285;-76
2022/01/20 12:20:55;;;;;;;4.17;1.17;;;;;;;;;;6288330;28;20590;-76
2022/01/20 12:24:01;;;;;;;1.27;1.27;;;;;;;;;;6292419;28;20194;-76
2022/01/20 12:27:15;;;;;;;1.00;1.00;;;;;;;;;;6289208;28;20234;-77
2022/01/20 12:30:21;;;;;;;1.17;1.17;;;;;;;;;;6288611;28;20537;-77
2022/01/20 12:33:27;;;;;;;0.90;0.90;;;;;;;;;;6290297;28;20233;-77
2022/01/20 12:36:37;;;;;;;1.13;1.13;;;;;;;;;;6288868;28;20250;-77
2022/01/20 12:39:42;;;;;;;1.00;1.00;;;;;;;;;;6288985;28;20255;-77
2022/01/20 12:42:47;;;;;;;1.10;1.10;;;;;;;;;;6289973;28;20218;-77
2022/01/20 12:45:58;;;;;;;3.33;1.07;;;;;;;;;;6288563;28;20233;-77
2022/01/20 12:49:05;;;;;;;1.30;1.17;;;;;;;;;;6288479;28;20219;-77
2022/01/20 12:52:10;;;;;;;1.10;1.10;;;;;;;;;;6288621;28;20229;-77
2022/01/20 12:55:17;;;;;;;2.63;1.23;;;;;;;;;;6287695;28;20568;-77
2022/01/20 12:58:21;;;;;;;1.00;1.00;;;;;;;;;;6289292;28;20249;-77
2022/01/20 13:01:26;;;;;;;1.30;1.10;;;;;;;;;;6288171;28;20284;-77
2022/01/20 13:04:32;;;;;;;1.90;1.13;;;;;;;;;;6288056;28;20188;-78
2022/01/20 13:07:38;;;;;;;0.90;0.90;;;;;;;;;;6280288;28;20211;-77
2022/01/20 13:11:06;;;;;;;0.93;0.93;;;;;;;;;;6300802;28;20227;-77
2022/01/20 13:14:11;;;;;;;0.93;0.93;;;;;;;;;;6313711;28;20185;-77
2022/01/20 13:17:22;;;;;;;1.13;1.13;;;;;;;;;;6313612;28;20248;-77
2022/01/20 13:20:26;;;;;;;0.80;0.80;;;;;;;;;;6312317;28;20535;-77
2022/01/20 13:23:55;;;;;;;1.33;1.33;;;;;;;;;;6313664;28;20191;-77
2022/01/20 13:27:02;;;;;;;1.30;1.30;;;;;;;;;;6313080;28;20238;-77
2022/01/20 13:30:09;;;;;;;0.90;0.90;;;;;;;;;;6311921;28;20233;-77
2022/01/20 13:33:18;;;;;;;0.90;0.90;;;;;;;;;;6313281;28;20202;-77
2022/01/20 13:36:22;;;;;;;0.90;0.90;;;;;;;;;;6312266;28;20241;-77
2022/01/20 13:39:33;;;;;;;1.00;1.00;;;;;;;;;;6312182;28;20190;-77
2022/01/20 13:42:46;;;;;;;1.00;1.00;;;;;;;;;;6312447;28;20224;-77
2022/01/20 13:45:50;;;;;;;1.70;1.13;;;;;;;;;;6311518;28;20234;-77
2022/01/20 13:48:54;;;;;;;1.30;1.30;;;;;;;;;;6311577;28;20401;-77
2022/01/20 13:52:00;;;;;;;1.20;1.20;;;;;;;;;;6311927;28;20555;-77
2022/01/20 13:55:18;;;;;;;0.90;0.90;;;;;;;;;;6310969;28;20344;-77
2022/01/20 13:58:25;;;;;;;1.60;1.20;;;;;;;;;;6312619;28;20191;-77
2022/01/20 14:01:29;;;;;;;1.20;1.20;;;;;;;;;;6311483;28;20523;-77
2022/01/20 14:04:33;;;;;;;0.90;0.90;;;;;;;;;;6312244;28;20190;-77
2022/01/20 14:07:37;;;;;;;2.43;1.30;;;;;;;;;;6311254;28;20576;-76
2022/01/20 14:10:41;;;;;;;0.90;0.90;;;;;;;;;;6298118;28;20301;-76
2022/01/20 14:13:47;;;;;;;1.00;1.00;;;;;;;;;;6286286;28;20478;-76
2022/01/20 14:16:51;;;;;;;1.17;1.17;;;;;;;;;;6286828;28;20258;-76
2022/01/20 14:19:59;;;;;;;0.90;0.90;;;;;;;;;;6285908;28;20442;-76
2022/01/20 14:23:05;;;;;;;2.20;1.10;;;;;;;;;;6287555;28;20229;-77
2022/01/20 14:26:12;;;;;;;2.40;1.10;;;;;;;;;;6286489;28;20235;-77
2022/01/20 14:29:17;;;;;;;1.87;1.13;;;;;;;;;;6288830;28;20218;-78
2022/01/20 14:32:22;;;;;;;1.40;1.10;;;;;;;;;;6287002;28;20504;-78
2022/01/20 14:35:28;;;;;;;2.93;1.23;;;;;;;;;;6287139;28;20236;-78
2022/01/20 14:38:52;;;;;;;0.90;0.90;;;;;;;;;;6287772;28;20521;-78
2022/01/20 14:41:56;;;;;;;0.90;0.90;;;;;;;;;;6286039;28;20237;-76
2022/01/20 14:45:02;;;;;;;0.80;0.80;;;;;;;;;;6286104;28;20274;-76
2022/01/20 14:48:06;;;;;;;2.47;1.37;;;;;;;;;;6287495;28;20247;-76
2022/01/20 14:51:11;;;;;;;1.03;1.03;;;;;;;;;;6286157;28;20235;-77
2022/01/20 14:54:16;;;;;;;4.43;1.67;;;;;;;;;;6286857;28;20193;-76
2022/01/20 14:57:20;;;;;;;1.00;1.00;;;;;;;;;;6285577;28;20238;-76
2022/01/20 15:00:37;;;;;;;1.23;1.23;;;;;;;;;;6285656;28;20548;-76
2022/01/20 15:03:42;;;;;;;1.13;0.97;;;;;;;;;;6285780;28;20404;-76
2022/01/20 15:06:46;;;;;;;1.00;1.00;;;;;;;;;;6285630;28;20287;-76
2022/01/20 15:09:50;;;;;;;1.07;1.00;;;;;;;;;;6282175;28;20239;-76
2022/01/20 15:13:01;;;;;;;1.20;1.20;;;;;;;;;;6285606;28;20194;-76
2022/01/20 15:16:08;;;;;;;1.00;1.00;;;;;;;;;;6285802;28;20231;-76
2022/01/20 15:19:13;;;;;;;2.00;1.10;;;;;;;;;;6286957;28;20266;-75
2022/01/20 15:22:18;;;;;;;1.20;1.20;;;;;;;;;;6286507;28;20234;-76
2022/01/20 15:25:22;;;;;;;1.20;1.20;;;;;;;;;;6286856;28;20298;-77
2022/01/20 15:28:29;;;;;;;0.80;0.80;;;;;;;;;;6287886;28;20217;-76
2022/01/20 15:31:36;;;;;;;1.27;1.03;;;;;;;;;;6285031;28;20249;-76
2022/01/20 15:34:41;;;;;;;0.90;0.90;;;;;;;;;;6284890;28;20217;-76
2022/01/20 15:37:45;;;;;;;1.00;1.00;;;;;;;;;;6307865;28;20264;-76
2022/01/20 15:40:50;;;;;;;1.10;1.10;;;;;;;;;;6309671;28;20294;-76
2022/01/20 15:43:55;;;;;;;2.63;1.00;;;;;;;;;;6309836;28;20278;-76
2022/01/20 15:47:01;;;;;;;1.10;1.10;;;;;;;;;;6310578;28;20327;-76
2022/01/20 15:50:06;;;;;;;1.20;1.20;;;;;;;;;;6310988;28;20254;-75
2022/01/20 15:53:14;;;;;;;2.83;1.20;;;;;;;;;;6312639;28;20240;-75
2022/01/20 15:56:18;;;;;;;1.10;1.10;;;;;;;;;;6313772;28;20229;-76
2022/01/20 15:59:23;;;;;;;1.00;1.00;;;;;;;;;;6318929;28;20245;-76
2022/01/20 16:02:29;;;;;;;1.00;1.00;;;;;;;;;;6314824;28;20206;-76
2022/01/20 16:05:33;;;;;;;1.00;1.00;;;;;;;;;;6314235;28;20240;-75
2022/01/20 16:08:37;;;;;;;1.30;1.30;;;;;;;;;;6314896;28;20283;-75
2022/01/20 16:11:42;;;;;;;0.90;0.90;;;;;;;;;;6292186;28;20564;-75
2022/01/20 16:14:46;;;;;;;1.10;1.10;;;;;;;;;;6289764;28;20226;-76
2022/01/20 16:17:53;;;;;;;3.20;1.53;;;;;;;;;;6290459;28;20186;-76
2022/01/20 16:20:58;;;;;;;1.20;1.20;;;;;;;;;;6288890;28;20532;-76
2022/01/20 16:24:03;;;;;;;1.20;1.10;;;;;;;;;;6289043;28;20194;-76
2022/01/20 16:27:07;;;;;;;2.53;1.10;;;;;;;;;;6289807;28;20242;-77
2022/01/20 16:30:12;;;;;;;0.70;0.70;;;;;;;;;;6288792;28;20234;-77
2022/01/20 16:33:18;;;;;;;1.50;1.37;;;;;;;;;;6288824;28;20233;-76
2022/01/20 16:36:22;;;;;;;1.40;1.40;;;;;;;;;;6289186;28;20234;-76
2022/01/20 16:39:26;;;;;;;1.20;1.20;;;;;;;;;;6288294;28;20386;-77
2022/01/20 16:42:30;;;;;;;1.20;1.07;;;;;;;;;;6289251;28;20187;-76
2022/01/20 16:45:35;;;;;;;1.30;1.30;;;;;;;;;;6288729;28;20229;-76
2022/01/20 16:48:44;;;;;;;1.23;1.23;;;;;;;;;;6290500;28;20249;-76
2022/01/20 16:51:48;;;;;;;1.10;1.10;;;;;;;;;;6288094;28;20234;-76
2022/01/20 16:54:52;;;;;;;1.50;1.20;;;;;;;;;;6288684;28;20273;-76
2022/01/20 16:57:56;;;;;;;1.23;1.20;;;;;;;;;;6288463;28;20186;-76
2022/01/20 17:01:02;;;;;;;1.40;1.30;;;;;;;;;;6288601;28;20233;-76
2022/01/20 17:04:07;;;;;;;1.47;1.37;;;;;;;;;;6289219;28;20260;-76
2022/01/20 17:07:14;;;;;;;2.57;1.57;;;;;;;;;;6287596;28;20234;-76
2022/01/20 17:10:19;;;;;;;1.20;1.20;;;;;;;;;;6278323;28;20235;-76
2022/01/20 17:13:23;;;;;;;1.40;1.27;;;;;;;;;;6263515;28;20478;-76
2022/01/20 17:16:28;;;;;;;1.37;1.10;;;;;;;;;;6263208;28;20235;-77
2022/01/20 17:19:39;;;;;;;1.20;1.20;;;;;;;;;;6263700;28;20192;-77
2022/01/20 17:22:43;;;;;;;1.20;1.13;;;;;;;;;;6263318;28;20285;-76
2022/01/20 17:25:47;;;;;;;1.00;1.00;;;;;;;;;;6262896;28;20273;-75
2022/01/20 17:28:51;;;;;;;1.30;1.20;;;;;;;;;;6263621;28;20223;-76
2022/01/20 17:31:55;;;;;;;1.40;1.30;;;;;;;;;;6262589;28;20595;-75
2022/01/20 17:35:01;;;;;;;0.97;0.97;;;;;;;;;;6263272;28;20239;-76
2022/01/20 17:38:06;;;;;;;1.97;1.10;;;;;;;;;;6309465;28;20238;-76
2022/01/20 17:41:11;;;;;;;0.90;0.90;;;;;;;;;;6312109;28;20233;-76
2022/01/20 17:44:16;;;;;;;1.00;1.00;;;;;;;;;;6313588;28;20264;-76
2022/01/20 17:47:21;;;;;;;1.27;1.10;;;;;;;;;;6312545;28;20230;-76
2022/01/20 17:50:27;;;;;;;1.00;1.00;;;;;;;;;;6312537;28;20232;-76
2022/01/20 17:53:31;;;;;;;1.10;1.10;;;;;;;;;;6312242;28;20233;-77
2022/01/20 17:56:35;;;;;;;1.07;1.07;;;;;;;;;;6312692;28;20226;-78
2022/01/20 17:59:40;;;;;;;1.37;1.37;;;;;;;;;;6313789;28;20198;-78
2022/01/20 18:02:44;;;;;;;1.27;1.20;;;;;;;;;;6296546;28;20238;-78
2022/01/20 18:05:50;;;;;;;1.20;1.10;;;;;;;;;;6313464;28;20233;-78
2022/01/20 18:08:54;;;;;;;0.90;0.90;;;;;;;;;;6313899;28;20186;-77
2022/01/20 18:11:59;;;;;;;1.10;1.10;;;;;;;;;;6312281;28;20265;-78
2022/01/20 18:15:04;;;;;;;1.90;1.10;;;;;;;;;;6312177;28;20572;-78
2022/01/20 18:18:16;;;;;;;0.90;0.90;;;;;;;;;;6311680;28;20187;-78
2022/01/20 18:21:36;;;;;;;0.90;0.90;;;;;;;;;;6312474;28;20237;-78
2022/01/20 18:24:42;;;;;;;1.17;1.17;;;;;;;;;;6312632;28;20187;-78
2022/01/20 18:27:46;;;;;;;1.07;1.07;;;;;;;;;;6314114;28;20229;-78
2022/01/20 18:30:50;;;;;;;1.10;1.10;;;;;;;;;;6313731;28;20240;-78
2022/01/20 18:33:54;;;;;;;1.87;1.07;;;;;;;;;;6314473;28;20183;-78
2022/01/20 18:37:00;;;;;;;1.13;1.13;;;;;;;;;;6284393;28;20266;-77
2022/01/20 18:40:05;;;;;;;1.10;1.10;;;;;;;;;;6286132;28;20235;-77
2022/01/20 18:43:09;;;;;;;1.13;1.13;;;;;;;;;;6286324;28;20255;-77
2022/01/20 18:46:14;;;;;;;2.87;1.20;;;;;;;;;;6286108;28;20230;-76
2022/01/20 18:49:20;;;;;;;1.00;1.00;;;;;;;;;;6287334;28;20207;-76
2022/01/20 18:52:26;;;;;;;1.50;1.20;;;;;;;;;;6285843;28;20279;-76
2022/01/20 18:55:30;;;;;;;5.43;1.23;;;;;;;;;;6286472;28;20341;-77
2022/01/20 18:58:36;;;;;;;0.97;0.97;;;;;;;;;;6287269;28;20248;-76
2022/01/20 19:01:41;;;;;;;1.17;1.17;;;;;;;;;;6285999;28;20239;-76
2022/01/20 19:04:45;;;;;;;2.00;1.13;;;;;;;;;;6286247;28;20236;-76
2022/01/20 19:07:51;;;;;;;1.13;1.10;;;;;;;;;;6287428;28;20191;-78
2022/01/20 19:10:55;;;;;;;1.13;1.10;;;;;;;;;;6286726;28;20295;-77
2022/01/20 19:13:59;;;;;;;1.40;1.27;;;;;;;;;;6287694;28;20193;-77
2022/01/20 19:17:04;;;;;;;2.37;0.97;;;;;;;;;;6286591;28;20413;-76
2022/01/20 19:20:11;;;;;;;1.00;1.00;;;;;;;;;;6287033;28;20265;-78
2022/01/20 19:23:17;;;;;;;1.00;1.00;;;;;;;;;;6286966;28;20187;-77
2022/01/20 19:26:21;;;;;;;3.40;1.17;;;;;;;;;;6287076;28;20229;-76
2022/01/20 19:29:25;;;;;;;0.90;0.90;;;;;;;;;;6287563;28;20231;-77
2022/01/20 19:32:29;;;;;;;1.00;1.00;;;;;;;;;;6292176;28;20254;-76
2022/01/20 19:35:34;;;;;;;1.20;1.20;;;;;;;;;;6292131;28;20240;-76